Time;durP1;ratioP1;P1;durP2;ratioP2;P2;SDS_P1;SDS_P2;PMS_P1;PMS_P2;Temp;Humidity;BMP_temperature;BMP_pressure;BME280_temperature;BME280_humidity;BME280_pressure;Samples;Min_cycle;Max_cycle;Signal;HPM_P1;HPM_P2
2022/03/29 00:01:49;;;;;;;4.78;1.30;;;20.30;99.90;;;;;;4978812;28;20188;-87
2022/03/29 00:04:20;;;;;;;3.60;1.30;;;20.30;99.90;;;;;;4977709;28;20199;-88
2022/03/29 00:06:50;;;;;;;2.78;1.25;;;20.30;99.90;;;;;;4982678;28;20192;-88
2022/03/29 00:09:21;;;;;;;6.20;1.27;;;20.40;99.90;;;;;;4980489;28;20192;-83
2022/03/29 00:11:52;;;;;;;6.30;1.48;;;20.40;99.90;;;;;;4983502;28;20191;-88
2022/03/29 00:14:24;;;;;;;5.63;1.50;;;20.40;99.90;;;;;;4987318;28;20647;-89
2022/03/29 00:16:55;;;;;;;4.60;1.35;;;20.40;99.90;;;;;;4972727;28;20220;-90
2022/03/29 00:19:26;;;;;;;5.97;1.20;;;20.40;99.90;;;;;;4978048;28;20192;-89
2022/03/29 00:21:56;;;;;;;4.97;1.20;;;20.40;99.90;;;;;;4969083;28;20189;-90
2022/03/29 00:24:27;;;;;;;4.28;1.10;;;20.40;99.90;;;;;;4985915;28;20196;-88
2022/03/29 00:26:58;;;;;;;5.60;1.35;;;20.50;99.90;;;;;;4974445;28;20644;-87
2022/03/29 00:29:30;;;;;;;3.85;1.33;;;20.50;99.90;;;;;;4975690;28;20188;-89
2022/03/29 00:32:01;;;;;;;4.55;1.30;;;20.50;99.90;;;;;;4980209;28;20194;-90
2022/03/29 00:34:32;;;;;;;1.77;0.90;;;20.50;99.90;;;;;;4978299;28;20656;-86
2022/03/29 00:37:02;;;;;;;2.88;1.10;;;20.50;99.90;;;;;;4974038;28;22085;-91
2022/03/29 00:39:33;;;;;;;4.25;1.30;;;20.60;99.90;;;;;;4976993;28;20188;-86
2022/03/29 00:42:04;;;;;;;4.07;1.88;;;20.60;99.90;;;;;;4975317;28;20193;-92
2022/03/29 00:44:38;;;;;;;3.72;1.15;;;20.60;99.90;;;;;;4976506;28;20192;-91
2022/03/29 00:47:09;;;;;;;2.30;1.10;;;20.60;99.90;;;;;;4977651;28;20600;-75
2022/03/29 00:49:40;;;;;;;2.15;1.00;;;20.60;99.90;;;;;;4975975;28;20629;-92
2022/03/29 00:52:11;;;;;;;3.45;1.38;;;20.60;99.90;;;;;;4976201;28;20193;-76
2022/03/29 00:54:43;;;;;;;3.78;1.05;;;20.60;99.90;;;;;;4976168;28;20193;-86
2022/03/29 00:57:14;;;;;;;2.60;1.10;;;20.70;99.90;;;;;;4976550;28;20220;-91
2022/03/29 00:59:47;;;;;;;3.03;1.35;;;20.60;99.90;;;;;;4982207;28;20195;-91
2022/03/29 01:02:17;;;;;;;2.83;1.08;;;20.60;99.90;;;;;;4976304;28;20275;-92
2022/03/29 01:04:48;;;;;;;1.75;0.88;;;20.60;99.90;;;;;;4974700;28;20247;-93
2022/03/29 01:07:19;;;;;;;4.28;1.42;;;20.70;99.90;;;;;;4974045;28;20208;-92
2022/03/29 01:09:49;;;;;;;4.55;1.30;;;20.70;99.90;;;;;;4976744;28;20251;-93
2022/03/29 01:12:22;;;;;;;4.50;1.20;;;20.70;99.90;;;;;;4987731;28;20647;-92
2022/03/29 01:14:54;;;;;;;4.28;1.02;;;20.70;99.90;;;;;;4978398;28;20603;-92
2022/03/29 01:17:43;;;;;;;3.08;0.82;;;20.70;99.90;;;;;;4981407;28;20220;-95
2022/03/29 01:20:16;;;;;;;3.40;1.10;;;20.70;99.90;;;;;;4983802;28;20207;-89
2022/03/29 01:22:50;;;;;;;1.92;0.90;;;20.70;99.90;;;;;;4976125;28;20605;-93
2022/03/29 01:25:22;;;;;;;3.40;1.00;;;20.70;99.90;;;;;;4976447;28;20193;-92
2022/03/29 01:27:54;;;;;;;1.85;0.93;;;20.70;99.90;;;;;;4982249;28;20714;-80
2022/03/29 01:30:25;;;;;;;2.78;1.00;;;20.70;99.90;;;;;;4991455;28;20255;-93
2022/03/29 01:32:56;;;;;;;1.25;0.80;;;20.70;99.90;;;;;;4973217;28;20243;-91
2022/03/29 01:35:28;;;;;;;3.95;1.20;;;20.80;99.90;;;;;;4970724;28;20585;-91
2022/03/29 01:38:01;;;;;;;3.88;0.80;;;20.80;99.90;;;;;;4969045;28;20236;-92
2022/03/29 01:40:32;;;;;;;1.55;0.80;;;20.80;99.90;;;;;;4971778;28;20223;-92
2022/03/29 01:43:04;;;;;;;2.78;0.65;;;20.80;99.90;;;;;;4970108;28;20204;-91
2022/03/29 01:45:35;;;;;;;2.55;0.98;;;20.80;99.90;;;;;;4974917;28;20223;-89
2022/03/29 01:48:06;;;;;;;2.92;0.90;;;20.80;99.90;;;;;;4978899;28;20210;-91
2022/03/29 01:50:37;;;;;;;2.78;1.15;;;20.90;99.90;;;;;;4974850;28;20656;-88
2022/03/29 01:53:09;;;;;;;4.80;1.40;;;20.90;99.90;;;;;;4974548;28;20236;-82
2022/03/29 01:55:41;;;;;;;2.42;0.90;;;21.00;99.90;;;;;;4974943;28;20250;-88
2022/03/29 01:58:12;;;;;;;3.45;1.23;;;21.10;99.90;;;;;;4975777;28;20251;-87
2022/03/29 02:00:46;;;;;;;2.90;0.90;;;21.10;99.90;;;;;;4974300;28;20204;-87
2022/03/29 02:03:16;;;;;;;1.92;0.77;;;21.10;99.90;;;;;;4975049;28;20195;-86
2022/03/29 02:05:47;;;;;;;1.58;0.80;;;21.20;99.90;;;;;;4966617;28;20235;-86
2022/03/29 02:08:20;;;;;;;1.30;0.65;;;21.20;99.90;;;;;;4972735;28;20192;-86
2022/03/29 02:10:50;;;;;;;1.67;0.70;;;21.20;99.90;;;;;;4971665;28;20196;-86
2022/03/29 02:13:21;;;;;;;2.30;0.75;;;21.30;99.90;;;;;;4980104;28;20234;-83
2022/03/29 02:15:52;;;;;;;2.17;0.93;;;21.30;99.90;;;;;;4977610;28;20188;-85
2022/03/29 02:18:22;;;;;;;2.95;1.02;;;21.40;99.90;;;;;;4980734;28;20270;-85
2022/03/29 02:20:53;;;;;;;2.00;0.80;;;21.50;99.90;;;;;;4969577;28;20277;-85
2022/03/29 02:23:25;;;;;;;2.30;0.90;;;21.60;99.90;;;;;;4974014;28;20263;-83
2022/03/29 02:25:56;;;;;;;1.55;0.85;;;21.70;99.90;;;;;;4976728;28;20712;-85
2022/03/29 02:28:27;;;;;;;3.33;1.10;;;21.70;99.90;;;;;;4977615;28;20192;-86
2022/03/29 02:30:57;;;;;;;1.40;0.90;;;21.80;99.90;;;;;;4975412;28;20196;-84
2022/03/29 02:33:28;;;;;;;1.00;0.95;;;21.90;99.90;;;;;;4973700;28;20246;-84
2022/03/29 02:35:59;;;;;;;2.38;0.95;;;21.90;99.90;;;;;;4974407;28;20226;-84
2022/03/29 02:38:31;;;;;;;1.10;0.88;;;22.00;99.90;;;;;;4973539;28;20275;-76
2022/03/29 02:41:02;;;;;;;2.10;1.02;;;22.00;99.90;;;;;;4970869;28;20192;-77
2022/03/29 02:43:32;;;;;;;1.70;1.15;;;22.00;99.90;;;;;;4972609;28;20239;-77
2022/03/29 02:46:03;;;;;;;2.10;1.10;;;22.00;99.90;;;;;;4975289;28;20698;-77
2022/03/29 02:48:34;;;;;;;2.13;1.08;;;22.10;99.90;;;;;;4978290;28;20280;-78
2022/03/29 02:51:05;;;;;;;1.67;1.20;;;22.20;99.90;;;;;;4971863;28;20236;-76
2022/03/29 02:53:37;;;;;;;1.20;1.10;;;22.20;99.90;;;;;;4978713;28;20200;-80
2022/03/29 02:56:08;;;;;;;2.28;0.95;;;22.20;99.90;;;;;;4983405;28;20664;-76
2022/03/29 02:58:39;;;;;;;2.20;1.50;;;22.30;99.90;;;;;;4983461;28;20282;-76
2022/03/29 03:01:10;;;;;;;1.30;1.20;;;22.30;99.90;;;;;;4979579;28;20194;-76
2022/03/29 03:03:40;;;;;;;2.58;1.20;;;22.20;99.90;;;;;;4981520;28;20187;-76
2022/03/29 03:06:11;;;;;;;1.98;1.00;;;22.20;99.90;;;;;;4978781;28;20189;-78
2022/03/29 03:08:43;;;;;;;1.85;0.88;;;22.20;99.90;;;;;;4975764;28;20200;-80
2022/03/29 03:11:14;;;;;;;2.88;1.10;;;22.20;99.90;;;;;;4983680;28;20195;-79
2022/03/29 03:13:45;;;;;;;0.85;0.82;;;22.20;99.90;;;;;;4983458;28;20243;-75
2022/03/29 03:16:15;;;;;;;2.03;1.13;;;22.30;99.90;;;;;;4977877;28;20188;-76
2022/03/29 03:18:46;;;;;;;1.33;1.02;;;22.30;99.90;;;;;;4984495;28;20235;-76
2022/03/29 03:21:16;;;;;;;7.40;1.98;;;22.30;99.90;;;;;;4978043;28;20263;-76
2022/03/29 03:23:49;;;;;;;2.67;1.27;;;22.30;99.90;;;;;;4977386;28;20185;-77
2022/03/29 03:26:20;;;;;;;2.13;1.10;;;22.30;99.90;;;;;;4976968;28;20244;-76
2022/03/29 03:28:50;;;;;;;3.22;1.27;;;22.30;99.90;;;;;;4974489;28;20203;-76
2022/03/29 03:31:21;;;;;;;4.28;1.40;;;22.30;99.90;;;;;;4980285;28;20192;-79
2022/03/29 03:33:51;;;;;;;3.33;1.30;;;22.30;99.90;;;;;;4975731;28;20192;-76
2022/03/29 03:36:22;;;;;;;3.17;1.20;;;22.30;99.90;;;;;;4977226;28;20224;-77
2022/03/29 03:38:54;;;;;;;1.75;1.30;;;22.30;99.90;;;;;;4977679;28;20216;-76
2022/03/29 03:41:25;;;;;;;1.77;0.90;;;22.30;99.90;;;;;;4981555;28;20593;-76
2022/03/29 03:43:56;;;;;;;3.63;1.10;;;22.30;99.90;;;;;;4975881;28;20192;-76
2022/03/29 03:46:26;;;;;;;5.55;1.00;;;22.30;99.90;;;;;;4976434;28;20200;-76
2022/03/29 03:48:57;;;;;;;5.50;0.90;;;22.30;99.90;;;;;;4974552;28;20215;-79
2022/03/29 03:51:28;;;;;;;4.72;1.00;;;22.30;99.90;;;;;;4985140;28;20235;-81
2022/03/29 03:54:00;;;;;;;4.38;1.10;;;22.30;99.90;;;;;;4978741;28;20203;-80
2022/03/29 03:56:31;;;;;;;3.28;1.15;;;22.30;99.90;;;;;;4976490;28;20188;-78
2022/03/29 03:59:01;;;;;;;6.20;1.15;;;22.40;99.90;;;;;;4977006;28;20235;-77
2022/03/29 04:01:32;;;;;;;2.53;0.80;;;22.30;99.90;;;;;;4977812;28;20256;-76
2022/03/29 04:04:03;;;;;;;4.03;0.88;;;22.40;99.90;;;;;;4976850;28;20196;-75
2022/03/29 04:06:33;;;;;;;3.42;0.85;;;22.40;99.90;;;;;;4981711;28;20635;-76
2022/03/29 04:09:06;;;;;;;5.15;1.00;;;22.40;99.90;;;;;;4977117;28;20211;-75
2022/03/29 04:11:38;;;;;;;2.95;0.85;;;22.40;99.90;;;;;;4976318;28;20200;-81
2022/03/29 04:14:09;;;;;;;2.17;0.98;;;22.40;99.90;;;;;;4977147;28;20200;-81
2022/03/29 04:16:40;;;;;;;4.53;1.08;;;22.40;99.90;;;;;;4975013;28;20196;-80
2022/03/29 04:19:11;;;;;;;2.65;0.75;;;22.40;99.90;;;;;;4976795;28;20216;-78
2022/03/29 04:21:42;;;;;;;4.30;0.93;;;22.30;99.90;;;;;;4976515;28;20193;-77
2022/03/29 04:24:14;;;;;;;4.60;0.95;;;22.30;99.90;;;;;;4977907;28;22026;-79
2022/03/29 04:26:45;;;;;;;2.08;0.70;;;22.30;99.90;;;;;;4978810;28;20208;-79
2022/03/29 04:29:15;;;;;;;3.47;1.00;;;22.30;99.90;;;;;;4974486;28;20197;-79
2022/03/29 04:31:46;;;;;;;4.30;0.90;;;22.30;99.90;;;;;;4975056;28;20251;-79
2022/03/29 04:34:17;;;;;;;4.50;0.88;;;22.30;99.90;;;;;;4972168;28;20200;-79
2022/03/29 04:36:47;;;;;;;2.55;0.80;;;22.20;99.90;;;;;;4974125;28;20235;-78
2022/03/29 04:39:20;;;;;;;2.67;0.80;;;22.20;99.90;;;;;;4975433;28;20680;-79
2022/03/29 04:41:51;;;;;;;2.72;0.80;;;22.20;99.90;;;;;;4976727;28;20200;-79
2022/03/29 04:44:21;;;;;;;5.30;1.00;;;22.20;99.90;;;;;;4974704;28;20656;-78
2022/03/29 04:46:52;;;;;;;7.05;0.80;;;22.10;99.90;;;;;;4984881;28;20208;-79
2022/03/29 04:49:22;;;;;;;4.13;0.88;;;22.10;99.90;;;;;;4986806;28;20192;-77
2022/03/29 04:51:53;;;;;;;2.60;0.70;;;22.10;99.90;;;;;;4975206;28;20991;-79
2022/03/29 04:54:26;;;;;;;6.00;1.10;;;22.00;99.90;;;;;;4976674;28;20197;-79
2022/03/29 04:56:56;;;;;;;3.40;0.70;;;22.00;99.90;;;;;;4973009;28;20216;-80
2022/03/29 04:59:27;;;;;;;7.00;1.10;;;22.00;99.90;;;;;;4973715;28;20242;-79
2022/03/29 05:01:58;;;;;;;5.88;1.00;;;22.10;99.90;;;;;;4975202;28;20197;-79
2022/03/29 05:04:28;;;;;;;5.95;0.80;;;22.10;99.90;;;;;;4971088;28;20200;-80
2022/03/29 05:06:59;;;;;;;3.90;0.80;;;22.10;99.90;;;;;;4973142;28;20264;-80
2022/03/29 05:09:31;;;;;;;3.88;0.98;;;22.10;99.90;;;;;;4970666;28;20196;-79
2022/03/29 05:12:02;;;;;;;4.03;0.90;;;22.20;99.90;;;;;;4975359;28;20200;-79
2022/03/29 05:14:34;;;;;;;2.80;0.70;;;22.20;99.90;;;;;;4978639;28;20195;-79
2022/03/29 05:17:05;;;;;;;6.60;1.23;;;22.20;99.90;;;;;;4974482;28;20196;-78
2022/03/29 05:19:36;;;;;;;4.68;0.68;;;22.20;99.90;;;;;;4975698;28;20601;-78
2022/03/29 05:22:08;;;;;;;5.95;0.90;;;22.20;99.90;;;;;;4975022;28;20196;-78
2022/03/29 05:24:42;;;;;;;3.88;0.80;;;22.20;99.90;;;;;;4977985;28;20196;-79
2022/03/29 05:27:12;;;;;;;4.75;1.00;;;22.20;99.90;;;;;;4982930;28;20215;-77
2022/03/29 05:29:44;;;;;;;5.10;0.98;;;22.20;99.90;;;;;;4983151;28;20637;-77
2022/03/29 05:32:18;;;;;;;2.92;0.70;;;22.20;99.90;;;;;;4974632;28;20207;-76
2022/03/29 05:34:50;;;;;;;3.92;0.80;;;22.20;99.90;;;;;;4979023;28;20198;-77
2022/03/29 05:37:22;;;;;;;3.33;0.80;;;22.20;99.90;;;;;;4976773;28;20220;-77
2022/03/29 05:39:55;;;;;;;3.58;0.70;;;22.20;99.90;;;;;;4970948;28;20191;-78
2022/03/29 05:42:26;;;;;;;3.30;0.65;;;22.20;99.90;;;;;;4971734;28;20260;-76
2022/03/29 05:44:57;;;;;;;2.67;0.70;;;22.20;99.90;;;;;;4969683;28;20195;-77
2022/03/29 05:50:12;;;;;;;2.10;0.80;;;22.30;99.90;;;;;;4961920;28;20750;-76
2022/03/29 05:52:42;;;;;;;3.72;1.00;;;22.30;99.90;;;;;;4970646;28;20192;-77
2022/03/29 05:55:15;;;;;;;4.50;1.00;;;22.30;99.90;;;;;;4978546;28;20196;-76
2022/03/29 05:57:49;;;;;;;6.38;1.20;;;22.30;99.90;;;;;;4964880;28;20632;-77
2022/03/29 06:00:21;;;;;;;5.55;1.00;;;22.30;99.90;;;;;;4977467;28;20215;-77
2022/03/29 06:02:52;;;;;;;5.50;1.10;;;22.30;99.90;;;;;;4980539;28;20561;-77
2022/03/29 06:05:22;;;;;;;4.43;1.10;;;22.30;99.90;;;;;;4976918;28;20197;-76
2022/03/29 06:07:53;;;;;;;6.35;1.10;;;22.30;99.90;;;;;;4976079;28;20196;-77
2022/03/29 06:10:26;;;;;;;5.90;1.10;;;22.30;99.90;;;;;;4973106;28;20188;-76
2022/03/29 06:12:56;;;;;;;3.97;1.00;;;22.30;99.90;;;;;;4973314;28;20195;-77
2022/03/29 06:15:27;;;;;;;6.28;1.30;;;22.30;99.90;;;;;;4973176;28;20196;-77
2022/03/29 06:17:57;;;;;;;7.20;1.35;;;22.30;99.90;;;;;;4979564;28;20303;-76
2022/03/29 06:20:28;;;;;;;3.28;0.95;;;22.30;99.90;;;;;;4976922;28;20192;-76
2022/03/29 06:22:59;;;;;;;2.85;1.17;;;22.20;99.90;;;;;;4972709;28;20196;-77
2022/03/29 06:25:32;;;;;;;7.00;1.35;;;22.20;99.90;;;;;;4975843;28;20204;-76
2022/03/29 06:28:03;;;;;;;5.13;1.23;;;22.20;99.90;;;;;;4979078;28;20195;-76
2022/03/29 06:30:33;;;;;;;6.25;1.33;;;22.20;99.90;;;;;;4974622;28;20258;-78
2022/03/29 06:33:04;;;;;;;4.32;1.35;;;22.10;99.90;;;;;;4979844;28;20212;-78
2022/03/29 06:35:37;;;;;;;4.90;1.40;;;22.10;99.90;;;;;;4977424;28;20219;-77
2022/03/29 06:38:09;;;;;;;3.95;1.30;;;22.10;99.90;;;;;;4981186;28;20212;-78
2022/03/29 06:40:42;;;;;;;4.65;1.40;;;22.10;99.90;;;;;;4973476;28;20200;-78
2022/03/29 06:43:13;;;;;;;3.95;1.20;;;22.10;99.90;;;;;;4973650;28;20288;-78
2022/03/29 06:45:44;;;;;;;6.30;1.50;;;22.10;99.90;;;;;;4973532;28;20192;-78
2022/03/29 06:48:14;;;;;;;6.03;1.27;;;22.00;99.90;;;;;;4979366;28;20201;-77
2022/03/29 06:50:45;;;;;;;5.55;1.30;;;22.00;99.90;;;;;;4978242;28;20323;-78
2022/03/29 06:53:16;;;;;;;5.90;1.38;;;22.00;99.90;;;;;;4976353;28;20192;-77
2022/03/29 06:55:50;;;;;;;6.20;1.30;;;22.00;99.90;;;;;;4973864;28;20200;-76
2022/03/29 06:58:21;;;;;;;5.22;1.50;;;22.00;99.90;;;;;;4986240;28;21072;-76
2022/03/29 07:00:52;;;;;;;7.00;1.50;;;22.00;99.90;;;;;;4980665;28;20192;-76
2022/03/29 07:03:23;;;;;;;5.50;1.80;;;21.90;99.90;;;;;;4973745;28;20584;-75
2022/03/29 07:05:54;;;;;;;6.88;2.22;;;21.90;99.90;;;;;;4976967;28;20614;-76
2022/03/29 07:08:25;;;;;;;6.13;2.30;;;21.90;99.90;;;;;;4975396;28;20211;-76
2022/03/29 07:13:56;;;;;;;5.97;1.73;;;21.90;99.90;;;;;;4930818;29;20737;-76
2022/03/29 07:16:28;;;;;;;5.28;1.83;;;21.90;99.90;;;;;;4963989;28;20251;-76
2022/03/29 07:18:58;;;;;;;6.80;1.95;;;21.90;99.90;;;;;;4979412;28;20303;-75
2022/03/29 07:21:29;;;;;;;7.78;2.10;;;21.90;99.90;;;;;;4979558;28;20558;-75
2022/03/29 07:24:00;;;;;;;7.10;2.03;;;21.80;99.90;;;;;;4975408;28;20199;-76
2022/03/29 07:26:32;;;;;;;4.70;1.73;;;21.80;99.90;;;;;;4977400;28;20195;-76
2022/03/29 07:29:04;;;;;;;5.28;1.90;;;21.80;99.90;;;;;;4973671;28;20239;-77
2022/03/29 07:31:36;;;;;;;8.55;1.98;;;21.80;99.90;;;;;;4976697;28;20255;-77
2022/03/29 07:34:08;;;;;;;7.97;2.00;;;21.70;99.90;;;;;;4973198;28;20206;-77
2022/03/29 07:36:39;;;;;;;6.60;1.70;;;21.70;99.90;;;;;;4979760;28;20223;-76
2022/03/29 07:39:10;;;;;;;9.15;2.25;;;21.70;99.90;;;;;;4974197;28;20223;-76
2022/03/29 07:41:43;;;;;;;6.03;2.10;;;21.70;99.90;;;;;;4978270;28;20254;-77
2022/03/29 07:44:13;;;;;;;7.97;2.10;;;21.70;99.90;;;;;;4980490;28;20632;-77
2022/03/29 07:46:44;;;;;;;10.07;2.10;;;21.50;99.90;;;;;;4982931;28;20188;-76
2022/03/29 07:49:14;;;;;;;7.18;1.92;;;21.60;99.90;;;;;;4981275;28;20247;-77
2022/03/29 07:51:45;;;;;;;5.22;1.70;;;21.50;99.90;;;;;;4979818;28;20255;-78
2022/03/29 07:54:16;;;;;;;5.13;1.88;;;21.50;99.90;;;;;;4978845;28;20188;-77
2022/03/29 07:56:49;;;;;;;6.20;2.10;;;21.40;99.90;;;;;;4979611;28;20197;-76
2022/03/29 07:59:22;;;;;;;6.45;2.10;;;21.40;99.90;;;;;;4978543;28;20303;-77
2022/03/29 08:01:54;;;;;;;6.40;2.40;;;21.30;99.90;;;;;;4986911;28;20189;-78
2022/03/29 08:04:24;;;;;;;10.85;3.03;;;21.30;99.90;;;;;;4977951;28;20184;-79
2022/03/29 08:06:55;;;;;;;10.77;2.85;;;21.30;99.90;;;;;;4976705;28;20632;-78
2022/03/29 08:09:25;;;;;;;9.73;2.42;;;21.30;99.90;;;;;;4984072;28;20212;-78
2022/03/29 08:11:58;;;;;;;11.20;2.97;;;21.30;99.90;;;;;;4984735;28;20192;-79
2022/03/29 08:14:29;;;;;;;9.35;2.90;;;21.30;99.90;;;;;;4976108;28;20664;-78
2022/03/29 08:16:59;;;;;;;11.55;2.97;;;21.30;99.90;;;;;;4975159;28;20679;-79
2022/03/29 08:19:30;;;;;;;10.15;3.22;;;21.30;99.90;;;;;;4975028;28;20212;-79
2022/03/29 08:22:01;;;;;;;10.93;3.00;;;21.30;99.90;;;;;;4975945;28;20376;-77
2022/03/29 08:24:33;;;;;;;10.82;2.55;;;21.30;99.90;;;;;;4979178;28;20231;-79
2022/03/29 08:27:05;;;;;;;8.75;3.15;;;21.30;99.90;;;;;;4978697;28;20192;-79
2022/03/29 08:29:36;;;;;;;13.63;3.55;;;21.30;99.90;;;;;;4977261;28;20200;-78
2022/03/29 08:32:07;;;;;;;8.80;3.60;;;21.30;99.90;;;;;;4980036;28;20636;-79
2022/03/29 08:34:38;;;;;;;12.68;3.58;;;21.20;99.90;;;;;;4976442;28;20279;-77
2022/03/29 08:37:08;;;;;;;9.13;3.08;;;21.20;99.90;;;;;;4977700;28;20219;-77
2022/03/29 08:39:39;;;;;;;12.93;3.60;;;21.20;99.90;;;;;;4977334;28;20215;-75
2022/03/29 08:42:13;;;;;;;10.15;2.80;;;21.20;99.90;;;;;;4975259;28;20187;-76
2022/03/29 08:44:45;;;;;;;10.18;2.58;;;21.10;99.90;;;;;;4979462;28;20193;-76
2022/03/29 08:47:16;;;;;;;9.80;1.98;;;21.10;99.90;;;;;;4978090;28;20232;-76
2022/03/29 08:49:49;;;;;;;11.82;2.10;;;21.10;99.90;;;;;;4974523;28;20228;-76
2022/03/29 08:52:21;;;;;;;7.78;1.73;;;21.00;99.90;;;;;;4978833;28;20567;-78
2022/03/29 08:54:52;;;;;;;10.52;1.85;;;20.90;99.90;;;;;;4975758;28;20185;-76
2022/03/29 08:57:24;;;;;;;10.02;2.00;;;20.80;99.90;;;;;;4982718;28;20284;-79
2022/03/29 08:59:56;;;;;;;11.90;1.95;;;20.80;99.90;;;;;;4977217;28;20213;-78
2022/03/29 09:02:28;;;;;;;11.60;2.13;;;20.70;99.90;;;;;;4977007;28;20220;-78
2022/03/29 09:05:19;;;;;;;9.95;1.63;;;20.70;99.90;;;;;;4972705;28;20199;-76
2022/03/29 09:07:54;;;;;;;7.38;1.70;;;20.70;99.90;;;;;;4969618;28;20200;-77
2022/03/29 09:10:41;;;;;;;13.55;2.10;;;20.60;99.90;;;;;;4979041;28;20207;-76
2022/03/29 09:13:22;;;;;;;8.75;1.77;;;20.60;99.90;;;;;;4979977;28;20563;-76
2022/03/29 09:15:55;;;;;;;8.38;2.00;;;20.60;99.90;;;;;;4974445;28;20224;-76
2022/03/29 09:18:25;;;;;;;10.52;1.83;;;20.70;99.90;;;;;;4976829;28;20204;-76
2022/03/29 09:21:13;;;;;;;12.95;2.00;;;20.70;99.90;;;;;;4971104;28;20223;-76
2022/03/29 09:23:45;;;;;;;12.70;2.47;;;20.70;99.90;;;;;;4980066;28;20192;-75
2022/03/29 09:26:31;;;;;;;12.13;2.17;;;20.60;99.90;;;;;;4979668;28;20196;-76
2022/03/29 09:29:04;;;;;;;10.07;2.00;;;20.60;99.90;;;;;;4975316;28;20206;-76
2022/03/29 09:31:34;;;;;;;12.13;1.98;;;20.60;99.90;;;;;;4980489;28;20548;-76
2022/03/29 09:34:16;;;;;;;10.73;1.90;;;20.60;99.90;;;;;;4973976;28;20188;-77
2022/03/29 09:36:51;;;;;;;14.68;2.05;;;20.60;99.90;;;;;;4980315;28;20223;-75
2022/03/29 09:39:37;;;;;;;12.05;2.03;;;20.70;99.90;;;;;;4983346;28;20215;-75
2022/03/29 09:42:12;;;;;;;10.77;1.85;;;20.60;99.90;;;;;;4972723;28;20204;-76
2022/03/29 09:44:48;;;;;;;13.25;2.08;;;20.60;99.90;;;;;;4982102;28;20183;-76
2022/03/29 09:47:22;;;;;;;9.10;2.10;;;20.60;99.90;;;;;;4973481;28;20204;-77
2022/03/29 09:50:01;;;;;;;13.15;2.10;;;20.60;99.90;;;;;;4972523;28;20266;-77
2022/03/29 09:52:33;;;;;;;13.00;1.92;;;20.60;99.90;;;;;;4978509;28;20200;-76
2022/03/29 09:55:16;;;;;;;9.32;1.80;;;20.60;99.90;;;;;;4980408;28;20192;-77
2022/03/29 09:57:49;;;;;;;10.30;1.60;;;20.60;99.90;;;;;;4978856;28;20647;-77
2022/03/29 10:00:35;;;;;;;15.80;2.42;;;20.60;99.90;;;;;;4975443;28;20242;-77
2022/03/29 10:03:10;;;;;;;11.65;2.00;;;20.60;99.90;;;;;;4973832;28;20189;-77
2022/03/29 10:05:43;;;;;;;5.38;1.70;;;20.60;99.90;;;;;;4978217;28;20238;-76
2022/03/29 10:11:03;;;;;;;8.40;2.20;;;20.60;99.90;;;;;;4977349;28;20206;-77
2022/03/29 10:13:36;;;;;;;10.65;2.00;;;20.60;99.90;;;;;;4977719;28;20192;-77
2022/03/29 10:16:14;;;;;;;10.27;1.90;;;20.60;99.90;;;;;;4976118;28;20192;-77
2022/03/29 10:18:47;;;;;;;10.27;1.67;;;20.60;99.90;;;;;;4977647;28;20250;-79
2022/03/29 10:21:20;;;;;;;8.35;1.73;;;20.60;99.90;;;;;;4978030;28;20193;-77
2022/03/29 10:23:52;;;;;;;6.82;1.70;;;20.60;99.90;;;;;;4977328;28;20196;-77
2022/03/29 10:26:28;;;;;;;9.55;1.60;;;20.60;99.90;;;;;;4977195;28;20199;-77
2022/03/29 10:28:58;;;;;;;6.90;1.45;;;20.60;99.90;;;;;;4973507;28;20192;-78
2022/03/29 10:31:41;;;;;;;8.65;1.70;;;20.60;99.90;;;;;;4976764;28;20251;-77
2022/03/29 10:34:19;;;;;;;5.63;1.40;;;20.60;99.90;;;;;;4974884;28;20198;-77
2022/03/29 10:37:07;;;;;;;8.43;1.60;;;20.60;99.90;;;;;;4976674;28;20223;-77
2022/03/29 10:39:55;;;;;;;7.32;1.65;;;20.60;99.90;;;;;;4976155;28;20721;-77
2022/03/29 10:42:46;;;;;;;5.55;1.40;;;20.60;99.90;;;;;;4974899;28;20208;-78
2022/03/29 10:45:25;;;;;;;3.05;1.17;;;20.60;99.90;;;;;;4975151;28;20198;-76
2022/03/29 10:48:13;;;;;;;7.32;1.40;;;20.60;99.90;;;;;;4975000;28;20203;-77
2022/03/29 10:50:59;;;;;;;7.35;1.30;;;20.50;99.90;;;;;;4972410;28;20224;-77
2022/03/29 10:53:32;;;;;;;6.35;1.45;;;20.50;99.90;;;;;;4975808;28;20243;-77
2022/03/29 10:56:23;;;;;;;7.13;1.35;;;20.50;99.90;;;;;;4967934;28;20647;-77
2022/03/29 10:59:17;;;;;;;4.40;1.33;;;20.50;99.90;;;;;;4979099;28;20216;-77
2022/03/29 11:02:08;;;;;;;3.38;1.05;;;20.50;99.90;;;;;;4973171;28;20204;-77
2022/03/29 11:05:03;;;;;;;4.63;1.40;;;20.50;99.90;;;;;;4974989;28;20188;-77
2022/03/29 11:07:35;;;;;;;3.05;1.35;;;20.50;99.90;;;;;;4972610;28;20200;-77
2022/03/29 11:10:14;;;;;;;5.03;1.13;;;20.50;99.90;;;;;;4973312;28;20208;-77
2022/03/29 11:12:49;;;;;;;7.63;1.35;;;20.50;99.90;;;;;;4967599;28;20195;-77
2022/03/29 11:15:49;;;;;;;7.97;1.80;;;20.50;99.90;;;;;;4971737;28;20192;-79
2022/03/29 11:18:52;;;;;;;13.18;2.45;;;20.50;99.90;;;;;;4971491;28;20196;-79
2022/03/29 11:21:51;;;;;;;12.40;2.20;;;20.50;99.90;;;;;;4976463;28;20275;-80
2022/03/29 11:24:24;;;;;;;12.88;2.80;;;20.50;99.90;;;;;;4954183;28;20200;-79
2022/03/29 11:27:02;;;;;;;12.25;2.65;;;20.50;99.90;;;;;;4976266;28;20258;-81
2022/03/29 11:29:33;;;;;;;12.77;3.25;;;20.40;99.90;;;;;;4977044;28;20251;-81
2022/03/29 11:32:04;;;;;;;14.30;3.17;;;20.40;99.90;;;;;;4976847;28;20189;-80
2022/03/29 11:34:44;;;;;;;15.60;2.80;;;20.40;99.90;;;;;;4976879;28;20199;-81
2022/03/29 11:40:17;;;;;;;19.08;3.20;;;20.40;99.90;;;;;;5112660;27;20554;-80
2022/03/29 11:42:49;;;;;;;7.93;1.95;;;20.30;99.90;;;;;;5103826;28;20650;-81
2022/03/29 11:45:21;;;;;;;9.65;2.30;;;20.30;99.90;;;;;;5099550;28;20219;-84
2022/03/29 11:47:57;;;;;;;11.05;2.05;;;20.20;99.90;;;;;;5102047;28;20192;-81
2022/03/29 11:50:35;;;;;;;7.13;1.40;;;20.20;99.90;;;;;;5106553;28;20180;-84
2022/03/29 11:53:16;;;;;;;4.63;0.90;;;20.20;99.90;;;;;;5101595;28;20202;-84
2022/03/29 11:56:05;;;;;;;4.10;1.00;;;20.10;99.90;;;;;;5109152;28;20527;-92
2022/03/29 11:58:38;;;;;;;3.03;0.70;;;20.10;99.90;;;;;;5095580;28;20315;-88
2022/03/29 12:01:10;;;;;;;3.58;1.00;;;20.00;99.90;;;;;;5096918;28;20187;-85
2022/03/29 12:03:42;;;;;;;6.25;1.08;;;20.00;99.90;;;;;;5090992;28;20180;-86
2022/03/29 12:06:14;;;;;;;7.47;1.20;;;19.90;99.90;;;;;;5097540;28;20189;-76
2022/03/29 12:08:53;;;;;;;5.28;1.10;;;19.90;99.90;;;;;;5106418;28;20192;-75
2022/03/29 12:11:28;;;;;;;3.60;0.90;;;19.90;99.90;;;;;;5096670;28;20188;-76
2022/03/29 12:14:10;;;;;;;6.00;1.20;;;19.90;99.90;;;;;;5101808;28;20187;-75
2022/03/29 12:16:43;;;;;;;4.72;0.80;;;19.90;99.90;;;;;;5103340;28;20184;-74
2022/03/29 12:19:15;;;;;;;4.57;1.08;;;19.90;99.90;;;;;;5105848;28;20216;-76
2022/03/29 12:21:48;;;;;;;4.15;1.08;;;19.90;99.90;;;;;;5099183;28;20212;-83
2022/03/29 12:24:19;;;;;;;2.00;1.10;;;19.90;99.90;;;;;;5103705;28;20279;-82
2022/03/29 12:26:54;;;;;;;7.75;1.10;;;20.00;99.90;;;;;;5097420;28;20249;-82
2022/03/29 12:29:26;;;;;;;7.10;1.23;;;19.90;99.90;;;;;;5085675;28;20210;-82
2022/03/29 12:31:58;;;;;;;2.42;0.80;;;19.90;99.90;;;;;;5091851;28;20545;-79
2022/03/29 12:34:31;;;;;;;5.38;1.00;;;19.90;99.90;;;;;;5090630;28;20550;-79
2022/03/29 12:37:04;;;;;;;6.28;1.10;;;20.00;99.90;;;;;;5096665;28;20208;-78
2022/03/29 12:39:38;;;;;;;4.75;1.00;;;20.00;99.90;;;;;;5101468;28;20763;-76
2022/03/29 12:42:13;;;;;;;4.53;0.88;;;19.90;99.90;;;;;;5089797;28;20192;-75
2022/03/29 12:44:46;;;;;;;7.78;1.02;;;19.90;99.90;;;;;;5097446;28;20184;-81
2022/03/29 12:47:17;;;;;;;5.20;1.02;;;19.90;99.90;;;;;;5094515;28;20242;-80
2022/03/29 12:49:49;;;;;;;4.50;1.10;;;19.90;99.90;;;;;;5094069;28;20189;-77
2022/03/29 12:52:20;;;;;;;5.90;1.27;;;19.90;99.90;;;;;;5079166;28;20632;-75
2022/03/29 12:54:53;;;;;;;3.10;0.90;;;19.90;99.90;;;;;;5075970;28;20186;-75
2022/03/29 12:57:38;;;;;;;7.22;1.25;;;19.90;99.90;;;;;;5082331;28;20665;-76
2022/03/29 13:00:11;;;;;;;6.45;1.30;;;19.80;99.90;;;;;;5092383;28;20212;-76
2022/03/29 13:02:46;;;;;;;5.20;1.23;;;19.90;99.90;;;;;;5086551;28;20185;-79
2022/03/29 13:05:18;;;;;;;5.00;1.00;;;19.80;99.90;;;;;;5076241;28;20197;-77
2022/03/29 13:07:50;;;;;;;6.97;1.00;;;19.80;99.90;;;;;;5085631;28;20185;-76
2022/03/29 13:10:24;;;;;;;4.45;1.10;;;19.80;99.90;;;;;;5085933;28;20250;-81
2022/03/29 13:13:08;;;;;;;8.10;1.10;;;19.80;99.90;;;;;;5072623;28;20224;-77
2022/03/29 13:15:45;;;;;;;5.13;1.15;;;19.80;99.90;;;;;;5071024;28;20241;-77
2022/03/29 13:18:25;;;;;;;5.75;1.10;;;19.70;99.90;;;;;;5081482;28;20227;-76
2022/03/29 13:21:07;;;;;;;5.35;1.17;;;19.70;99.90;;;;;;5087553;28;20184;-75
2022/03/29 13:23:40;;;;;;;4.38;1.30;;;19.70;99.90;;;;;;5069632;28;20247;-76
2022/03/29 13:26:12;;;;;;;9.45;1.17;;;19.70;99.90;;;;;;5074920;28;20272;-75
2022/03/29 13:28:46;;;;;;;5.07;1.23;;;19.70;99.90;;;;;;5076602;28;20195;-76